| time (UTC) | temp C | wind direction | speed KPH | gust KPH | rain 1hr cm | rain 24hr cm | rain mn cm | humidity % | barometer mb |
| 20260509234541 | 30 | 360 | 0.0 | 8.0 | 0.00 | 0.00 | 0.00 | 46 | 1000.5 |
| 20260509233039 | 30 | 360 | 1.6 | 12.9 | 0.00 | 0.00 | 0.00 | 47 | 1000.6 |
| 20260509231541 | 30 | 360 | 3.2 | 8.0 | 0.00 | 0.00 | 0.00 | 47 | 1000.7 |
| 20260509230041 | 30 | 360 | 0.0 | 6.4 | 0.00 | 0.00 | 0.00 | 48 | 1000.9 |
| 20260509224539 | 30 | 360 | 4.8 | 9.7 | 0.00 | 0.00 | 0.00 | 46 | 1000.9 |
| 20260509223036 | 30 | 360 | 1.6 | 8.0 | 0.00 | 0.00 | 0.00 | 48 | 1000.9 |
| 20260509221536 | 30 | 360 | 0.0 | 6.4 | 0.00 | 0.00 | 0.00 | 50 | 1001.0 |
| 20260509220038 | 30 | 360 | 3.2 | 8.0 | 0.00 | 0.00 | 0.00 | 49 | 1000.9 |
| 20260509214537 | 30 | 360 | 3.2 | 6.4 | 0.00 | 0.00 | 0.00 | 47 | 1001.1 |
| 20260509213033 | 30 | 360 | 1.6 | 12.9 | 0.00 | 0.00 | 0.00 | 48 | 1001.2 |
| 20260509211534 | 30 | 360 | 3.2 | 12.9 | 0.00 | 0.00 | 0.00 | 49 | 1001.3 |
| 20260509210031 | 30 | 360 | 0.0 | 8.0 | 0.00 | 0.00 | 0.00 | 46 | 1001.6 |
| 20260509204529 | 29 | 360 | 0.0 | 9.7 | 0.00 | 0.00 | 0.00 | 46 | 1001.8 |
| 20260509203031 | 29 | 360 | 4.8 | 16.1 | 0.00 | 0.00 | 0.00 | 46 | 1002.0 |
| 20260509201528 | 30 | 360 | 3.2 | 12.9 | 0.00 | 0.00 | 0.00 | 44 | 1002.2 |
| 20260509200026 | 30 | 360 | 3.2 | 14.5 | 0.00 | 0.00 | 0.00 | 47 | 1002.2 |
| 20260509194529 | 29 | 36 | 3.2 | 12.9 | 0.00 | 0.00 | 0.00 | 47 | 1002.5 |
| 20260509193023 | 29 | 360 | 0.0 | 4.8 | 0.00 | 0.00 | 0.00 | 45 | 1002.6 |
| 20260509191520 | 28 | 14 | 4.8 | 12.9 | 0.00 | 0.00 | 0.00 | 43 | 1002.7 |
| 20260509190018 | 28 | 360 | 3.2 | 9.7 | 0.00 | 0.00 | 0.00 | 50 | 1002.8 |
| 20260509184527 | 28 | 360 | 3.2 | 9.7 | 0.00 | 0.00 | 0.00 | 53 | 1003.0 |
| 20260509183017 | 28 | 360 | 4.8 | 9.7 | 0.00 | 0.00 | 0.00 | 48 | 1003.2 |
| 20260509181513 | 28 | 360 | 3.2 | 9.7 | 0.00 | 0.00 | 0.00 | 56 | 1003.4 |
| 20260509180009 | 27 | 360 | 3.2 | 9.7 | 0.00 | 0.00 | 0.00 | 56 | 1003.5 |
| 20260509174508 | 27 | 42 | 4.8 | 12.9 | 0.00 | 0.00 | 0.00 | 56 | 1003.6 |
| 20260509173004 | 26 | 360 | 4.8 | 14.5 | 0.00 | 0.00 | 0.00 | 58 | 1003.6 |
| 20260509171501 | 26 | 360 | 3.2 | 9.7 | 0.00 | 0.00 | 0.00 | 61 | 1003.8 |
| 20260509164556 | 25 | 360 | 3.2 | 14.5 | 0.00 | 0.00 | 0.00 | 61 | 1004.1 |
| 20260509163109 | 25 | 360 | 9.7 | 16.1 | 0.00 | 0.00 | 0.00 | 63 | 1004.2 |
| 20260509161550 | 25 | 360 | 9.7 | 17.7 | 0.00 | 0.00 | 0.00 | 64 | 1004.2 |
| 20260509160050 | 24 | 360 | 6.4 | 17.7 | 0.00 | 0.00 | 0.00 | 66 | 1004.2 |
| 20260509154548 | 23 | 360 | 9.7 | 19.3 | 0.00 | 0.00 | 0.00 | 66 | 1004.2 |
| 20260509153042 | 23 | 360 | 6.4 | 17.7 | 0.00 | 0.00 | 0.00 | 65 | 1004.2 |
| 20260509151539 | 23 | 360 | 8.0 | 16.1 | 0.00 | 0.00 | 0.00 | 68 | 1004.2 |
| 20260509150036 | 22 | 360 | 3.2 | 17.7 | 0.00 | 0.00 | 0.00 | 72 | 1004.3 |
| 20260509144535 | 21 | 360 | 8.0 | 12.9 | 0.00 | 0.00 | 0.00 | 70 | 1004.4 |
| 20260509143028 | 21 | 360 | 9.7 | 16.1 | 0.00 | 0.00 | 0.00 | 73 | 1004.4 |
| 20260509141536 | 20 | 350 | 4.8 | 12.9 | 0.00 | 0.00 | 0.00 | 81 | 1004.4 |
| 20260509140023 | 20 | 360 | 6.4 | 12.9 | 0.00 | 0.00 | 0.00 | 86 | 1004.6 |
| 20260509134522 | 19 | 360 | 4.8 | 12.9 | 0.00 | 0.00 | 0.00 | 86 | 1004.7 |
| 20260509133022 | 18 | 360 | 6.4 | 9.7 | 0.00 | 0.00 | 0.00 | 86 | 1004.7 |
| 20260509131524 | 18 | 360 | 4.8 | 8.0 | 0.00 | 0.00 | 0.00 | 86 | 1004.7 |
| 20260509130021 | 18 | 360 | 3.2 | 8.0 | 0.00 | 0.00 | 0.00 | 87 | 1004.5 |
| 20260509124520 | 17 | 360 | 4.8 | 9.7 | 0.00 | 0.00 | 0.00 | 88 | 1004.5 |
| 20260509123021 | 17 | 360 | 4.8 | 9.7 | 0.00 | 0.00 | 0.00 | 86 | 1004.4 |
| 20260509121520 | 17 | 360 | 4.8 | 8.0 | 0.00 | 0.00 | 0.00 | 86 | 1004.2 |
| 20260509120018 | 17 | 360 | 3.2 | 8.0 | 0.00 | 0.00 | 0.00 | 85 | 1003.9 |
| 20260509114518 | 17 | 360 | 3.2 | 8.0 | 0.00 | 0.00 | 0.00 | 84 | 1003.7 |
| 20260509113017 | 17 | 360 | 3.2 | 8.0 | 0.00 | 0.00 | 0.00 | 84 | 1003.5 |
| 20260509111526 | 17 | 360 | 1.6 | 4.8 | 0.00 | 0.00 | 0.00 | 83 | 1003.1 |
| 20260509110018 | 17 | 360 | 3.2 | 6.4 | 0.00 | 0.00 | 0.00 | 80 | 1003.1 |
| 20260509104526 | 17 | 360 | 1.6 | 6.4 | 0.00 | 0.00 | 0.00 | 78 | 1003.1 |
| 20260509103015 | 18 | 215 | 3.2 | 6.4 | 0.00 | 0.00 | 0.00 | 76 | 1003.3 |
| 20260509101519 | 18 | 360 | 3.2 | 6.4 | 0.00 | 0.00 | 0.00 | 74 | 1003.4 |
| 20260509100020 | 19 | 360 | 3.2 | 9.7 | 0.00 | 0.00 | 0.00 | 72 | 1003.6 |
| 20260509094513 | 19 | 360 | 3.2 | 17.7 | 0.00 | 0.03 | 0.00 | 72 | 1003.5 |
| 20260509093016 | 20 | 14 | 3.2 | 14.5 | 0.00 | 0.03 | 0.00 | 73 | 1002.8 |
| 20260509091511 | 20 | 360 | 6.4 | 19.3 | 0.00 | 0.03 | 0.00 | 67 | 1001.6 |
| 20260509090009 | 19 | 360 | 3.2 | 16.1 | 0.00 | 0.03 | 0.00 | 67 | 1001.0 |
| 20260509084507 | 18 | 182 | 3.2 | 16.1 | 0.00 | 0.03 | 0.00 | 73 | 998.8 |
| 20260509083001 | 17 | 217 | 4.8 | 17.7 | 0.00 | 0.03 | 0.00 | 80 | 999.3 |
| 20260509081602 | 16 | 268 | 6.4 | 24.1 | 0.00 | 0.03 | 0.00 | 85 | 1000.4 |
| 20260509080059 | 17 | 255 | 0.0 | 6.4 | 0.00 | 0.03 | 0.00 | 87 | 1000.7 |
| 20260509074551 | 17 | 288 | 0.0 | 3.2 | 0.00 | 0.03 | 0.00 | 87 | 1001.4 |
| 20260509073049 | 17 | 360 | 0.0 | 4.8 | 0.00 | 0.03 | 0.00 | 87 | 1002.6 |
| 20260509071547 | 17 | 360 | 8.0 | 14.5 | 0.00 | 0.03 | 0.00 | 87 | 1002.9 |
| 20260509070042 | 17 | 360 | 6.4 | 17.7 | 0.00 | 0.03 | 0.00 | 88 | 1004.5 |
| 20260509064538 | 18 | 360 | 6.4 | 20.9 | 0.00 | 0.03 | 0.00 | 90 | 1004.6 |
| 20260509063038 | 19 | 252 | 11.3 | 27.4 | 0.00 | 0.03 | 0.00 | 92 | 1005.0 |
| 20260509061542 | 19 | 360 | 4.8 | 9.7 | 0.00 | 0.03 | 0.00 | 92 | 1005.7 |
| 20260509060034 | 19 | 323 | 1.6 | 8.0 | 0.00 | 0.03 | 0.00 | 92 | 1005.6 |
| 20260509054530 | 19 | 329 | 3.2 | 8.0 | 0.00 | 0.03 | 0.00 | 92 | 1005.4 |
| 20260509053049 | 19 | 201 | 4.8 | 8.0 | 0.00 | 0.03 | 0.00 | 92 | 1004.8 |
| 20260509051526 | 19 | 360 | 4.8 | 12.9 | 0.00 | 0.03 | 0.00 | 92 | 1005.3 |
| 20260509050023 | 19 | 360 | 4.8 | 12.9 | 0.00 | 0.03 | 0.00 | 91 | 1004.8 |
| 20260509044522 | 19 | 140 | 0.0 | 3.2 | 0.00 | 0.03 | 0.03 | 90 | 1003.8 |
| 20260509043021 | 19 | 186 | 0.0 | 6.4 | 0.00 | 0.03 | 0.03 | 90 | 1003.6 |
| 20260509041521 | 19 | 90 | 0.0 | 4.8 | 0.00 | 0.03 | 0.03 | 90 | 1003.6 |
| 20260509040021 | 19 | 360 | 3.2 | 4.8 | 0.00 | 0.03 | 0.03 | 89 | 1003.5 |
| 20260509034521 | 20 | 84 | 1.6 | 4.8 | 0.00 | 0.03 | 0.03 | 89 | 1003.7 |
| 20260509033019 | 20 | 137 | 0.0 | 8.0 | 0.00 | 0.03 | 0.03 | 88 | 1003.0 |
| 20260509031519 | 20 | 155 | 3.2 | 9.7 | 0.00 | 0.03 | 0.03 | 88 | 1002.6 |
| 20260509030019 | 20 | 360 | 3.2 | 12.9 | 0.00 | 0.03 | 0.03 | 88 | 1002.2 |
| 20260509024521 | 20 | 360 | 4.8 | 16.1 | 0.00 | 0.03 | 0.03 | 88 | 1001.7 |
| 20260509023017 | 20 | 360 | 4.8 | 16.1 | 0.00 | 0.03 | 0.03 | 87 | 1001.3 |
| 20260509021516 | 20 | 182 | 6.4 | 16.1 | 0.00 | 0.03 | 0.03 | 86 | 1001.4 |
| 20260509020016 | 20 | 360 | 6.4 | 14.5 | 0.00 | 0.03 | 0.03 | 85 | 1001.0 |
| 20260509014518 | 21 | 360 | 6.4 | 9.7 | 0.00 | 0.03 | 0.03 | 83 | 1001.4 |
| 20260509013015 | 21 | 360 | 3.2 | 8.0 | 0.00 | 0.03 | 0.03 | 82 | 1001.7 |
| 20260509011515 | 21 | 360 | 3.2 | 8.0 | 0.00 | 0.03 | 0.03 | 81 | 1001.8 |
| 20260509010020 | 21 | 360 | 4.8 | 12.9 | 0.00 | 0.03 | 0.03 | 81 | 1001.6 |
| 20260509004528 | 22 | 158 | 6.4 | 16.1 | 0.00 | 0.03 | 0.03 | 80 | 1001.2 |
| 20260509003013 | 22 | 166 | 4.8 | 14.5 | 0.00 | 0.03 | 0.03 | 79 | 1001.1 |
| 20260509001511 | 22 | 170 | 4.8 | 16.1 | 0.00 | 0.03 | 0.03 | 78 | 1001.1 |
| 20260509000110 | 22 | 360 | 8.0 | 14.5 | 0.00 | 0.03 | 0.03 | 77 | 1001.3 |